Time;durP1;ratioP1;P1;durP2;ratioP2;P2;SDS_P1;SDS_P2;PMS_P1;PMS_P2;Temp;Humidity;BMP_temperature;BMP_pressure;BME280_temperature;BME280_humidity;BME280_pressure;Samples;Min_cycle;Max_cycle;Signal;HPM_P1;HPM_P2
2021/11/14 00:01:43;;;;;;;;;10.00;10.00;;;;;13.32;63.26;101297.44;4959025;28;46358;-47
2021/11/14 00:04:09;;;;;;;;;11.75;10.00;;;;;13.33;62.83;101293.91;4989703;28;45339;-46
2021/11/14 00:06:36;;;;;;;;;12.75;11.00;;;;;13.35;63.18;101293.00;5016519;28;45339;-45
2021/11/14 00:09:03;;;;;;;;;13.25;12.50;;;;;13.36;63.01;101292.09;4961412;28;45273;-44
2021/11/14 00:11:28;;;;;;;;;10.50;10.25;;;;;13.35;63.15;101293.00;4958739;28;45380;-47
2021/11/14 00:13:54;;;;;;;;;12.50;12.50;;;;;13.37;63.07;101296.47;4958630;28;45458;-47
2021/11/14 00:16:22;;;;;;;;;9.50;8.75;;;;;13.39;63.13;101300.00;4959515;28;45373;-46
2021/11/14 00:18:47;;;;;;;;;17.00;13.75;;;;;13.38;63.26;101296.47;4971792;28;45371;-44
2021/11/14 00:21:15;;;;;;;;;10.50;10.00;;;;;13.39;63.01;101297.38;4957332;28;45268;-44
2021/11/14 00:23:41;;;;;;;;;12.25;11.75;;;;;13.37;63.04;101297.41;4975468;28;45866;-46
2021/11/14 00:26:07;;;;;;;;;13.25;11.50;;;;;13.39;62.94;101300.88;4966808;28;45332;-45
2021/11/14 00:28:33;;;;;;;;;11.00;11.00;;;;;13.39;63.09;101303.50;4958330;28;45559;-46
2021/11/14 00:30:59;;;;;;;;;12.50;11.00;;;;;13.40;62.78;101296.47;4958616;28;46262;-46
2021/11/14 00:33:24;;;;;;;;;10.50;9.50;;;;;13.41;63.00;101298.19;4958549;28;45412;-44
2021/11/14 00:35:52;;;;;;;;;16.75;12.25;;;;;13.42;62.94;101289.38;4958839;28;45505;-48
2021/11/14 00:38:20;;;;;;;;;9.25;8.00;;;;;13.41;62.96;101292.91;4990489;28;45311;-46
2021/11/14 00:40:46;;;;;;;;;12.00;10.50;;;;;13.40;63.11;101286.78;4965284;28;45301;-47
2021/11/14 00:43:12;;;;;;;;;12.25;10.50;;;;;13.41;63.48;101292.91;4958051;28;45406;-46
2021/11/14 00:45:38;;;;;;;;;10.50;10.25;;;;;13.39;63.06;101292.09;4958553;28;45360;-43
2021/11/14 00:48:04;;;;;;;;;13.00;11.50;;;;;13.39;63.00;101294.72;4963648;28;45336;-47
2021/11/14 00:50:30;;;;;;;;;14.00;12.50;;;;;13.40;63.00;101301.75;5010470;28;45351;-44
2021/11/14 00:52:58;;;;;;;;;16.00;11.00;;;;;13.40;63.10;101296.47;4961848;28;45416;-47
2021/11/14 00:55:24;;;;;;;;;10.50;10.00;;;;;13.40;63.39;101302.63;4958389;28;45248;-47
2021/11/14 00:57:49;;;;;;;;;12.00;11.00;;;;;13.40;63.12;101296.47;4958069;28;45733;-45
2021/11/14 01:00:18;;;;;;;;;12.25;10.25;;;;;13.42;63.03;101297.31;4957026;28;46192;-46
2021/11/14 01:02:45;;;;;;;;;14.25;12.75;;;;;13.42;63.11;101290.28;4958122;28;45363;-45
2021/11/14 01:05:12;;;;;;;;;11.25;9.25;;;;;13.43;63.00;101299.94;4958108;28;45431;-46
2021/11/14 01:07:38;;;;;;;;;11.00;9.00;;;;;13.42;63.01;101292.03;4957697;28;45407;-45
2021/11/14 01:10:05;;;;;;;;;12.75;12.50;;;;;13.42;62.84;101294.66;4960092;28;46287;-47
2021/11/14 01:12:31;;;;;;;;;9.50;8.50;;;;;13.43;63.33;101292.03;4959429;28;45366;-48
2021/11/14 01:14:56;;;;;;;;;10.50;9.50;;;;;13.42;63.39;101289.38;4957960;28;45323;-43
2021/11/14 01:17:22;;;;;;;;;11.00;10.75;;;;;13.42;63.43;101292.91;4958016;28;45301;-45
2021/11/14 01:19:47;;;;;;;;;11.75;10.75;;;;;13.39;63.20;101295.59;4964648;28;46234;-47
2021/11/14 01:22:15;;;;;;;;;15.25;12.00;;;;;13.40;63.54;101292.06;4956563;28;45457;-45
2021/11/14 01:24:41;;;;;;;;;13.50;11.50;;;;;13.39;63.44;101295.59;4969536;28;45358;-44
2021/11/14 01:27:06;;;;;;;;;16.00;13.25;;;;;13.39;63.41;101295.59;4976877;28;45260;-42
2021/11/14 01:29:32;;;;;;;;;10.50;10.50;;;;;13.38;63.49;101299.13;4977435;28;46236;-45
2021/11/14 01:31:58;;;;;;;;;14.75;12.50;;;;;13.39;63.04;101300.88;4977615;28;45340;-43
2021/11/14 01:34:24;;;;;;;;;11.50;11.50;;;;;13.40;63.24;101301.75;4980645;28;45220;-43
2021/11/14 01:36:50;;;;;;;;;8.50;8.50;;;;;13.40;63.12;101301.75;4980273;28;45323;-47
2021/11/14 01:39:15;;;;;;;;;13.25;10.25;;;;;13.35;63.07;101288.59;4979085;28;47253;-47
2021/11/14 01:41:40;;;;;;;;;13.00;10.00;;;;;13.33;63.32;101301.81;4980115;28;45198;-44
2021/11/14 01:44:08;;;;;;;;;12.25;12.25;;;;;13.36;63.03;101300.00;4978928;28;45524;-44
2021/11/14 01:46:34;;;;;;;;;12.25;12.25;;;;;13.35;63.37;101298.28;4974314;28;45583;-47
2021/11/14 01:48:59;;;;;;;;;11.25;9.00;;;;;13.33;63.23;101298.28;5023942;28;47030;-45
2021/11/14 01:51:25;;;;;;;;;12.50;11.25;;;;;13.33;63.46;101296.53;4975381;27;45437;-45
2021/11/14 01:53:51;;;;;;;;;12.00;11.25;;;;;13.35;63.17;101301.78;4960867;28;45348;-46
2021/11/14 01:56:18;;;;;;;;;13.75;12.50;;;;;13.34;63.40;101297.41;4960844;28;45269;-47
2021/11/14 01:58:45;;;;;;;;;13.50;11.00;;;;;13.35;63.37;101300.94;4966434;28;46269;-46
2021/11/14 02:01:13;;;;;;;;;12.50;11.50;;;;;13.35;63.40;101300.94;4961262;28;45224;-46
2021/11/14 02:03:41;;;;;;;;;14.00;13.00;;;;;13.33;63.13;101304.47;4964142;28;45296;-46
2021/11/14 02:06:07;;;;;;;;;13.00;12.50;;;;;13.33;63.50;101312.38;4960341;28;45213;-48
2021/11/14 02:08:35;;;;;;;;;12.75;12.00;;;;;13.33;63.49;101309.75;4960261;28;45637;-48
2021/11/14 02:11:00;;;;;;;;;14.00;13.00;;;;;13.32;63.40;101313.28;4960482;28;45298;-44
2021/11/14 02:13:26;;;;;;;;;14.50;13.25;;;;;13.32;63.08;101313.28;4960124;28;45443;-45
2021/11/14 02:15:52;;;;;;;;;12.25;10.75;;;;;13.33;63.12;101312.38;4960673;28;45269;-47
2021/11/14 02:18:18;;;;;;;;;12.00;11.50;;;;;13.33;63.49;101311.50;4960292;28;45978;-46
2021/11/14 02:20:46;;;;;;;;;13.25;12.25;;;;;13.31;63.33;101313.31;4960303;28;45382;-43
2021/11/14 02:23:16;;;;;;;;;15.50;14.00;;;;;13.31;63.40;101319.44;4960276;28;45234;-46
2021/11/14 02:25:46;;;;;;;;;14.50;12.50;;;;;13.31;63.68;101310.66;4960150;28;45481;-46
2021/11/14 02:28:13;;;;;;;;;10.75;8.00;;;;;13.29;63.59;101304.53;4959616;28;45251;-48
2021/11/14 02:30:39;;;;;;;;;15.25;13.25;;;;;13.29;63.55;101310.66;4960357;28;45459;-45
2021/11/14 02:33:05;;;;;;;;;11.75;11.00;;;;;13.29;63.23;101304.53;4960103;28;45479;-46
2021/11/14 02:35:31;;;;;;;;;11.25;11.25;;;;;13.30;63.15;101308.91;4960144;28;45489;-47
2021/11/14 02:37:57;;;;;;;;;12.50;12.50;;;;;13.30;63.65;101309.78;4960010;28;46070;-45
2021/11/14 02:40:22;;;;;;;;;10.25;10.25;;;;;13.31;63.56;101310.66;4960194;28;45416;-47
2021/11/14 02:42:49;;;;;;;;;16.25;14.00;;;;;13.30;63.54;101307.13;4959916;28;45312;-47
2021/11/14 02:45:18;;;;;;;;;14.75;12.25;;;;;13.30;63.24;101307.13;4959136;28;45316;-49
2021/11/14 02:47:45;;;;;;;;;18.25;14.25;;;;;13.30;63.58;101307.13;4959698;28;45335;-46
2021/11/14 02:50:11;;;;;;;;;13.75;13.75;;;;;13.29;63.43;101308.03;5018464;28;45256;-45
2021/11/14 02:52:37;;;;;;;;;17.00;16.00;;;;;13.28;63.39;101303.66;4979542;28;45437;-44
2021/11/14 02:55:06;;;;;;;;;16.75;16.00;;;;;13.27;63.71;101307.19;4979426;28;45522;-45
2021/11/14 02:57:32;;;;;;;;;14.75;14.00;;;;;13.28;63.37;101300.16;4978947;28;46206;-49
2021/11/14 02:59:58;;;;;;;;;10.50;10.50;;;;;13.28;63.37;101300.16;4979348;28;45220;-46
2021/11/14 03:02:23;;;;;;;;;16.75;16.25;;;;;13.27;63.52;101301.94;4979333;28;45283;-48
2021/11/14 03:04:49;;;;;;;;;16.25;14.50;;;;;13.27;63.65;101307.19;4979300;28;45174;-45
2021/11/14 03:07:14;;;;;;;;;15.00;14.25;;;;;13.22;63.71;101298.50;4979338;28;46170;-47
2021/11/14 03:09:40;;;;;;;;;16.75;14.75;;;;;13.23;63.85;101300.25;4994443;28;45331;-45
2021/11/14 03:12:06;;;;;;;;;15.25;15.00;;;;;13.21;63.88;101306.44;4979135;27;45300;-45
2021/11/14 03:14:32;;;;;;;;;17.75;13.00;;;;;13.17;63.64;101301.19;4979123;28;45501;-48
2021/11/14 03:16:57;;;;;;;;;13.50;12.00;;;;;13.14;63.71;101295.09;4965240;28;47048;-47
2021/11/14 03:19:23;;;;;;;;;12.50;12.50;;;;;13.12;63.94;101299.53;4978317;28;45264;-44
2021/11/14 03:21:49;;;;;;;;;16.75;14.75;;;;;13.10;63.67;101302.19;4979413;28;45349;-47
2021/11/14 03:24:16;;;;;;;;;15.50;13.00;;;;;13.07;63.96;101298.72;4979038;28;45446;-44
2021/11/14 03:26:42;;;;;;;;;13.00;11.75;;;;;13.06;63.63;101291.72;4978766;28;47097;-44
2021/11/14 03:29:08;;;;;;;;;13.50;13.00;;;;;13.06;63.71;101297.84;4978655;28;45259;-44
2021/11/14 03:31:33;;;;;;;;;18.25;13.50;;;;;13.06;63.70;101299.63;4977802;27;45246;-47
2021/11/14 03:33:59;;;;;;;;;15.00;11.50;;;;;13.02;63.99;101301.44;4978863;28;45502;-44
2021/11/14 03:36:26;;;;;;;;;15.00;13.25;;;;;13.00;63.88;101301.47;4979021;28;46943;-44
2021/11/14 03:38:56;;;;;;;;;12.00;10.25;;;;;12.99;63.75;101306.75;4977541;28;45415;-46
2021/11/14 03:41:25;;;;;;;;;13.25;12.00;;;;;12.98;63.69;101305.91;4978893;28;45206;-47
2021/11/14 03:43:51;;;;;;;;;13.00;12.00;;;;;12.98;64.09;101305.91;4978559;28;45233;-46
2021/11/14 03:46:18;;;;;;;;;13.50;11.75;;;;;12.97;63.81;101313.84;4978766;28;45330;-45
2021/11/14 03:48:46;;;;;;;;;15.25;13.00;;;;;12.97;64.02;101309.41;4976294;28;45390;-48
2021/11/14 03:51:12;;;;;;;;;14.25;13.00;;;;;12.97;63.72;101308.56;4973412;28;45158;-47
2021/11/14 03:53:38;;;;;;;;;14.00;12.75;;;;;12.96;64.10;101307.66;4978891;28;45517;-45
2021/11/14 03:56:05;;;;;;;;;13.75;12.75;;;;;12.96;63.90;101314.72;4978061;28;45480;-44
2021/11/14 03:58:31;;;;;;;;;15.00;13.50;;;;;12.97;63.96;101313.84;4978532;28;45253;-44
2021/11/14 04:01:01;;;;;;;;;13.00;12.50;;;;;12.96;64.21;101315.59;4978631;28;45272;-44
2021/11/14 04:03:28;;;;;;;;;16.50;14.75;;;;;12.96;63.82;101312.94;4978738;28;45493;-45
2021/11/14 04:05:53;;;;;;;;;19.25;17.50;;;;;12.98;63.98;101312.91;4978398;28;45260;-44
2021/11/14 04:08:22;;;;;;;;;18.25;15.50;;;;;12.97;63.92;101309.41;4978545;28;45214;-44
2021/11/14 04:10:50;;;;;;;;;13.00;12.25;;;;;12.97;64.11;101309.41;4978633;28;45341;-49
2021/11/14 04:13:17;;;;;;;;;15.00;12.25;;;;;12.98;63.83;101307.66;4978164;28;45470;-46
2021/11/14 04:15:43;;;;;;;;;14.00;12.75;;;;;12.98;64.27;101312.91;4976946;28;48316;-46
2021/11/14 04:18:09;;;;;;;;;13.00;13.00;;;;;12.97;64.18;101305.94;4978532;28;45342;-45
2021/11/14 04:20:37;;;;;;;;;12.25;11.25;;;;;12.97;64.16;101304.16;4978384;28;45253;-46
2021/11/14 04:23:04;;;;;;;;;13.25;12.50;;;;;12.99;64.01;101306.75;4978421;28;45352;-47
2021/11/14 04:25:29;;;;;;;;;11.50;11.00;;;;;12.98;64.33;101302.38;4978090;28;46367;-49
2021/11/14 04:27:57;;;;;;;;;13.00;11.75;;;;;12.97;64.36;101304.16;4977851;28;45332;-46
2021/11/14 04:30:22;;;;;;;;;13.00;11.25;;;;;12.89;64.35;101287.56;4977113;28;45221;-50
2021/11/14 04:32:48;;;;;;;;;13.00;11.75;;;;;12.97;64.14;101296.22;4978232;28;45523;-44
2021/11/14 04:35:14;;;;;;;;;10.50;10.50;;;;;12.98;64.35;101297.09;4978136;28;46299;-47
2021/11/14 04:37:39;;;;;;;;;12.75;9.75;;;;;12.98;63.96;101305.91;4978215;28;45336;-44
2021/11/14 04:40:08;;;;;;;;;14.50;11.00;;;;;12.99;64.17;101299.72;4977100;28;45324;-45
2021/11/14 04:42:34;;;;;;;;;14.00;12.75;;;;;12.99;63.97;101301.47;4977916;28;45605;-46
2021/11/14 04:45:00;;;;;;;;;12.75;10.50;;;;;13.00;64.04;101308.50;4977819;28;47007;-46
2021/11/14 04:47:26;;;;;;;;;15.50;11.75;;;;;13.00;64.20;101308.50;4971206;28;46442;-45
2021/11/14 04:49:51;;;;;;;;;12.00;11.00;;;;;13.01;63.96;101311.09;5031579;28;45200;-48
2021/11/14 04:52:17;;;;;;;;;11.00;11.00;;;;;13.03;64.26;101307.59;4978158;28;45494;-45
2021/11/14 04:54:42;;;;;;;;;14.75;13.00;;;;;13.02;64.39;101317.28;4977945;28;46043;-44
2021/11/14 04:57:08;;;;;;;;;11.75;11.75;;;;;13.03;64.02;101312.84;4977690;28;45201;-45
2021/11/14 04:59:33;;;;;;;;;13.75;12.75;;;;;13.03;64.28;101308.47;4978224;28;45161;-45
2021/11/14 05:01:59;;;;;;;;;10.00;10.00;;;;;13.00;64.34;101306.75;4977875;28;45498;-44
2021/11/14 05:04:25;;;;;;;;;14.00;14.00;;;;;13.04;63.99;101312.81;4977759;28;45382;-44
2021/11/14 05:06:50;;;;;;;;;14.50;10.50;;;;;13.04;64.22;101312.81;4976941;28;45299;-46
2021/11/14 05:09:16;;;;;;;;;12.00;12.00;;;;;13.06;64.15;101308.41;4992991;28;45525;-45
2021/11/14 05:11:41;;;;;;;;;13.50;12.75;;;;;13.06;64.18;101305.78;4977747;28;45331;-47
2021/11/14 05:14:07;;;;;;;;;11.00;10.25;;;;;13.07;64.50;101312.81;4977396;28;46204;-47
2021/11/14 05:16:32;;;;;;;;;14.50;11.75;;;;;13.08;64.02;101311.91;4977763;28;45402;-48
2021/11/14 05:18:58;;;;;;;;;16.75;13.25;;;;;13.08;64.41;101304.00;4977903;28;45265;-45
2021/11/14 05:21:23;;;;;;;;;13.25;12.50;;;;;13.07;64.26;101301.34;4977784;28;45258;-49
2021/11/14 05:23:49;;;;;;;;;13.50;11.00;;;;;13.07;64.29;101298.72;4977521;28;45276;-44
2021/11/14 05:26:15;;;;;;;;;12.50;10.50;;;;;13.09;64.06;101300.44;4977513;28;45311;-45
2021/11/14 05:28:40;;;;;;;;;10.00;8.50;;;;;13.12;64.33;101302.19;4992483;28;45366;-45
2021/11/14 05:31:06;;;;;;;;;12.25;11.75;;;;;13.09;64.37;101297.78;4977671;28;45352;-45
2021/11/14 05:33:31;;;;;;;;;12.25;11.00;;;;;13.10;64.42;101304.81;4977289;28;45303;-45
2021/11/14 05:35:57;;;;;;;;;12.50;10.25;;;;;13.08;63.74;101297.81;4977457;28;45278;-45
2021/11/14 05:38:23;;;;;;;;;15.00;12.25;;;;;13.12;64.10;101302.19;4977536;28;45295;-48
2021/11/14 05:40:48;;;;;;;;;15.50;12.00;;;;;13.11;64.01;101298.66;4977441;28;45491;-45
2021/11/14 05:43:14;;;;;;;;;13.25;10.00;;;;;13.10;64.19;101299.53;4976899;28;45282;-44
2021/11/14 05:45:40;;;;;;;;;11.00;10.00;;;;;13.13;64.36;101303.91;4977291;28;45267;-44
2021/11/14 05:48:06;;;;;;;;;12.50;10.00;;;;;13.11;63.96;101300.44;4972242;28;45257;-45
2021/11/14 05:50:32;;;;;;;;;12.00;11.50;;;;;13.12;64.25;101308.31;5033348;27;45369;-44
2021/11/14 05:52:57;;;;;;;;;8.25;7.00;;;;;13.12;64.12;101307.47;4975636;28;47212;-46
2021/11/14 05:55:23;;;;;;;;;9.50;8.75;;;;;13.14;64.07;101313.56;4977197;28;45333;-44
2021/11/14 05:58:12;;;;;;;;;11.50;9.50;;;;;13.13;64.17;101306.53;4976884;28;45591;-45
2021/11/14 06:03:30;;;;;;;;;8.75;8.00;;;;;13.14;64.04;101311.81;4977034;28;45416;-43
2021/11/14 06:05:53;;;;;;;;;11.00;9.25;;;;;13.15;64.43;101317.94;4976732;28;45450;-45
2021/11/14 06:08:21;;;;;;;;;11.25;10.25;;;;;13.15;64.32;101313.53;4976933;28;45387;-44
2021/11/14 06:10:49;;;;;;;;;11.75;9.00;;;;;13.15;64.25;101316.16;4976947;28;45263;-45
2021/11/14 06:13:14;;;;;;;;;11.00;7.75;;;;;13.13;64.35;101319.72;4976511;28;45323;-46
2021/11/14 06:15:40;;;;;;;;;9.25;9.25;;;;;13.13;64.08;101325.00;4976698;28;45229;-45
2021/11/14 06:18:05;;;;;;;;;9.50;9.25;;;;;13.15;64.08;101325.88;4977496;28;45217;-44
2021/11/14 06:20:30;;;;;;;;;11.75;8.75;;;;;13.14;64.61;101324.13;4979837;28;45220;-45
2021/11/14 06:22:56;;;;;;;;;11.50;11.50;;;;;13.15;64.21;101328.50;4979828;28;46502;-44
2021/11/14 06:25:22;;;;;;;;;11.25;9.75;;;;;13.12;64.35;101325.94;4979679;28;45358;-45
2021/11/14 06:27:47;;;;;;;;;8.50;8.50;;;;;13.15;64.05;101333.78;4979663;28;45396;-45
2021/11/14 06:30:16;;;;;;;;;10.75;10.75;;;;;13.16;64.17;101330.25;4979786;28;45308;-44
2021/11/14 06:32:42;;;;;;;;;13.75;11.00;;;;;13.15;64.05;101332.00;4979893;28;46977;-45
2021/11/14 06:35:09;;;;;;;;;11.50;10.00;;;;;13.16;64.25;101336.38;4979732;28;45245;-45
2021/11/14 06:37:34;;;;;;;;;9.25;9.25;;;;;13.17;64.10;101347.84;4979803;28;45237;-49
2021/11/14 06:39:59;;;;;;;;;9.50;7.50;;;;;13.16;64.13;101346.09;4978364;28;45433;-46
2021/11/14 06:42:25;;;;;;;;;11.75;10.75;;;;;13.15;64.23;101350.47;4977962;28;47593;-47
2021/11/14 06:44:50;;;;;;;;;11.25;11.25;;;;;13.17;64.38;101348.69;4979572;28;45343;-44
2021/11/14 06:47:16;;;;;;;;;12.25;10.75;;;;;13.17;64.30;101358.41;4974206;28;45224;-46
2021/11/14 06:49:41;;;;;;;;;9.75;9.25;;;;;13.19;64.04;101356.59;5032580;28;45484;-44
2021/11/14 06:52:07;;;;;;;;;10.75;9.00;;;;;13.19;63.97;101355.72;4979503;28;46274;-48
2021/11/14 06:54:33;;;;;;;;;8.00;8.00;;;;;13.20;63.96;101363.63;4979489;28;45393;-48
2021/11/14 06:56:58;;;;;;;;;9.50;9.50;;;;;13.20;64.46;101363.63;4979102;28;45268;-47
2021/11/14 06:59:24;;;;;;;;;12.25;9.25;;;;;13.22;64.13;101368.84;4979392;28;45362;-46
2021/11/14 07:01:50;;;;;;;;;10.75;9.25;;;;;13.22;64.33;101371.50;4977629;28;46236;-46
2021/11/14 07:04:15;;;;;;;;;13.00;11.00;;;;;13.22;64.36;101374.13;4979243;28;45406;-47
2021/11/14 07:06:41;;;;;;;;;10.50;9.75;;;;;13.22;64.26;101375.03;4969977;28;45329;-47
2021/11/14 07:09:08;;;;;;;;;12.75;11.75;;;;;13.23;64.06;101379.41;4960294;28;45319;-44
2021/11/14 07:11:35;;;;;;;;;10.50;10.50;;;;;13.23;64.43;101379.41;4979035;28;47181;-43
2021/11/14 07:14:00;;;;;;;;;9.25;9.00;;;;;13.24;64.01;101381.13;4978938;28;45365;-46
2021/11/14 07:16:27;;;;;;;;;13.00;10.50;;;;;13.23;64.04;101389.97;4979278;28;45166;-45
2021/11/14 07:18:53;;;;;;;;;9.00;9.00;;;;;13.23;64.25;101383.81;4979121;28;45339;-46
2021/11/14 07:21:18;;;;;;;;;12.25;11.75;;;;;13.25;64.20;101390.81;4978955;28;46071;-45
2021/11/14 07:23:44;;;;;;;;;18.00;16.00;;;;;13.24;64.17;101388.19;4979158;28;45395;-45
2021/11/14 07:26:10;;;;;;;;;16.25;13.25;;;;;13.25;64.12;101390.81;4979041;28;45636;-46
2021/11/14 07:28:35;;;;;;;;;27.00;23.75;;;;;13.27;64.54;101388.13;4978929;28;45419;-46
2021/11/14 07:31:01;;;;;;;;;11.00;11.00;;;;;13.26;64.33;101392.56;4978357;28;46169;-46
2021/11/14 07:33:26;;;;;;;;;8.75;8.50;;;;;13.26;64.46;101400.47;4979193;28;45287;-48
2021/11/14 07:35:52;;;;;;;;;11.75;11.50;;;;;13.28;64.44;101408.34;4979185;28;45873;-47
2021/11/14 07:38:17;;;;;;;;;9.75;9.50;;;;;13.26;64.30;101402.25;4977618;28;45468;-44
2021/11/14 07:40:42;;;;;;;;;10.50;9.75;;;;;13.29;64.43;101407.47;4979007;28;45207;-48
2021/11/14 07:43:08;;;;;;;;;10.00;10.00;;;;;13.30;64.36;101417.13;4978539;28;45293;-45
2021/11/14 07:45:33;;;;;;;;;10.25;10.25;;;;;13.31;64.52;101418.88;4979136;28;45344;-45
2021/11/14 07:47:59;;;;;;;;;13.75;11.75;;;;;13.31;64.00;101409.19;4968992;28;45364;-47
2021/11/14 07:50:27;;;;;;;;;12.75;12.75;;;;;13.32;64.15;101412.72;5039734;28;46311;-46
2021/11/14 07:52:53;;;;;;;;;8.75;8.75;;;;;13.35;64.43;101415.31;4978696;28;45288;-48
2021/11/14 07:55:19;;;;;;;;;13.50;12.50;;;;;13.37;64.26;101417.91;4978911;28;45335;-45
2021/11/14 07:57:44;;;;;;;;;11.75;10.25;;;;;13.36;64.43;101418.78;4977955;28;45273;-44
2021/11/14 08:00:16;;;;;;;;;14.00;11.25;;;;;13.39;64.44;101426.72;4978734;28;46289;-44
2021/11/14 08:02:41;;;;;;;;;9.75;9.75;;;;;13.41;64.17;101422.28;4978419;28;45445;-47
2021/11/14 08:05:07;;;;;;;;;10.75;10.25;;;;;13.43;64.71;101425.78;4978816;28;45263;-48
2021/11/14 08:07:33;;;;;;;;;14.50;12.25;;;;;13.44;64.10;101430.16;4978357;28;45473;-45
2021/11/14 08:09:58;;;;;;;;;11.75;10.75;;;;;13.47;64.39;101424.81;4978508;28;46143;-47
2021/11/14 08:12:23;;;;;;;;;11.00;10.25;;;;;13.48;64.10;101421.28;4965677;28;45435;-44
2021/11/14 08:14:49;;;;;;;;;10.25;9.25;;;;;13.51;64.34;101426.53;4961413;28;45735;-44
2021/11/14 08:17:15;;;;;;;;;16.25;14.00;;;;;13.54;64.38;101425.63;4958894;28;45423;-43
2021/11/14 08:19:40;;;;;;;;;13.75;11.25;;;;;13.56;64.10;101435.25;4959165;28;45377;-43
2021/11/14 08:22:06;;;;;;;;;14.50;11.00;;;;;13.57;64.08;101433.47;4981307;28;45941;-44
2021/11/14 08:24:31;;;;;;;;;12.00;10.25;;;;;13.60;63.95;101429.03;4959172;28;45336;-47
2021/11/14 08:26:56;;;;;;;;;11.75;9.50;;;;;13.62;64.18;101434.28;4965631;28;45358;-42
2021/11/14 08:29:22;;;;;;;;;14.50;13.25;;;;;13.63;64.33;101431.63;4967394;28;47092;-45
2021/11/14 08:31:48;;;;;;;;;11.00;11.00;;;;;13.68;64.54;101438.59;4966500;28;45443;-47
2021/11/14 08:34:13;;;;;;;;;10.75;10.00;;;;;13.71;64.16;101433.25;4966116;28;45418;-45
2021/11/14 08:36:38;;;;;;;;;10.25;10.00;;;;;13.72;64.49;101430.63;4966003;28;45566;-47
2021/11/14 08:39:04;;;;;;;;;19.25;15.00;;;;;13.75;64.33;101424.41;4966991;28;46950;-43
2021/11/14 08:41:29;;;;;;;;;12.75;10.75;;;;;13.77;63.97;101430.50;4965309;28;45428;-44
2021/11/14 08:43:55;;;;;;;;;14.00;13.00;;;;;13.80;64.17;101427.84;4966563;28;45320;-44
2021/11/14 08:46:20;;;;;;;;;13.50;11.50;;;;;13.80;64.48;101428.69;4967160;28;45447;-48
2021/11/14 08:48:46;;;;;;;;;15.75;12.00;;;;;13.83;64.41;101430.41;4958111;28;45298;-47
2021/11/14 08:51:12;;;;;;;;;10.25;10.00;;;;;13.85;64.49;101420.72;4970421;28;46044;-40
2021/11/14 08:53:38;;;;;;;;;12.50;12.50;;;;;13.88;64.61;101418.00;4977231;28;45507;-45
2021/11/14 08:56:04;;;;;;;;;16.75;16.75;;;;;13.90;64.15;101416.22;4976918;28;45302;-48
2021/11/14 08:58:36;;;;;;;;;12.50;10.75;;;;;13.92;64.24;101421.47;4967061;28;46416;-56
2021/11/14 09:01:07;;;;;;;;;11.00;9.75;;;;;13.92;64.59;101419.72;4961420;28;45481;-44
2021/11/14 09:03:33;;;;;;;;;11.75;10.00;;;;;13.96;64.43;101428.44;4956087;28;45370;-43
2021/11/14 09:05:59;;;;;;;;;15.00;12.50;;;;;13.97;64.67;101423.13;4955789;28;45651;-47
2021/11/14 09:08:25;;;;;;;;;12.25;9.75;;;;;13.98;64.49;101430.16;4957319;28;46429;-44
2021/11/14 09:10:50;;;;;;;;;12.00;10.00;;;;;14.00;64.48;101430.16;4956860;28;45387;-46
2021/11/14 09:13:16;;;;;;;;;12.75;10.00;;;;;14.02;64.42;101430.09;4957520;28;45401;-45
2021/11/14 09:15:42;;;;;;;;;10.25;10.00;;;;;14.03;64.58;101440.66;4957228;28;45253;-45
2021/11/14 09:18:08;;;;;;;;;10.50;6.25;;;;;14.00;64.17;101432.78;4957241;28;46398;-43
2021/11/14 09:20:34;;;;;;;;;9.50;9.00;;;;;14.07;64.63;101446.75;4968280;28;45371;-48
2021/11/14 09:22:59;;;;;;;;;11.50;10.75;;;;;14.07;64.44;101447.59;4957275;28;45347;-44
2021/11/14 09:25:25;;;;;;;;;9.50;8.50;;;;;14.05;64.53;101446.78;4968520;28;45329;-44
2021/11/14 09:27:51;;;;;;;;;9.00;9.00;;;;;14.08;64.42;101441.44;4966558;28;45950;-44
2021/11/14 09:30:17;;;;;;;;;9.25;8.75;;;;;14.09;64.48;101447.59;4965053;28;45482;-48
2021/11/14 09:32:44;;;;;;;;;10.00;9.50;;;;;14.10;64.33;101446.69;4965907;28;45232;-45
2021/11/14 09:35:09;;;;;;;;;10.50;9.00;;;;;14.08;64.06;101444.06;4966399;28;45593;-44
2021/11/14 09:37:35;;;;;;;;;9.25;9.25;;;;;14.13;64.18;101442.22;4966697;28;45427;-39
2021/11/14 09:40:03;;;;;;;;;13.25;10.50;;;;;14.18;64.19;101444.78;4966891;28;45462;-39
2021/11/14 09:42:29;;;;;;;;;13.50;11.25;;;;;14.23;64.51;101444.72;4968434;28;45462;-40
2021/11/14 09:44:55;;;;;;;;;11.25;10.75;;;;;14.32;64.66;101451.59;4964652;28;45426;-39
2021/11/14 09:47:21;;;;;;;;;8.75;8.75;;;;;14.38;64.39;101452.34;4964151;28;45324;-39
2021/11/14 09:49:47;;;;;;;;;5.00;5.00;;;;;14.43;64.37;101453.13;4976645;28;45729;-39
2021/11/14 09:52:13;;;;;;;;;13.75;10.25;;;;;14.49;64.44;101452.16;4997270;28;45328;-39
2021/11/14 09:54:40;;;;;;;;;13.25;8.75;;;;;14.53;64.32;101458.28;4967322;28;45594;-39
2021/11/14 09:57:07;;;;;;;;;11.75;10.50;;;;;14.58;64.24;101451.13;4968242;27;45631;-39
2021/11/14 09:59:32;;;;;;;;;11.50;11.50;;;;;14.62;64.47;101461.59;4965671;28;45398;-39
2021/11/14 10:02:01;;;;;;;;;10.75;9.00;;;;;14.66;63.96;101459.78;4969658;28;45262;-38
2021/11/14 10:04:27;;;;;;;;;13.25;12.00;;;;;14.68;64.05;101455.34;4970847;28;45733;-39
2021/11/14 10:06:58;;;;;;;;;11.75;10.50;;;;;14.72;64.47;101458.81;4968614;28;47560;-40
2021/11/14 10:09:35;;;;;;;;;11.50;9.75;;;;;14.74;63.99;101459.63;4968041;28;45501;-38
2021/11/14 10:12:26;;;;;;;;;11.00;11.00;;;;;14.76;64.41;101460.47;4967259;28;45415;-40
2021/11/14 10:15:06;;;;;;;;;16.25;13.50;;;;;14.78;64.26;101456.03;4969954;28;46257;-40
2021/11/14 10:17:32;;;;;;;;;12.00;12.00;;;;;14.79;64.20;101457.75;4970618;28;47303;-42
2021/11/14 10:20:05;;;;;;;;;11.25;10.75;;;;;14.80;63.82;101462.16;4968448;28;45245;-39
2021/11/14 10:22:31;;;;;;;;;11.50;10.75;;;;;14.83;64.16;101456.81;4963064;28;45551;-39
2021/11/14 10:24:56;;;;;;;;;12.50;12.25;;;;;14.85;64.24;101464.72;4964797;28;45692;-39
2021/11/14 10:27:26;;;;;;;;;12.50;12.25;;;;;14.87;64.29;101458.47;4965231;28;46095;-39
2021/11/14 10:29:52;;;;;;;;;13.50;12.50;;;;;14.88;63.77;101457.59;4967211;28;45381;-40
2021/11/14 10:32:17;;;;;;;;;18.50;13.75;;;;;14.91;64.01;101456.66;4961949;28;45344;-40
2021/11/14 10:34:49;;;;;;;;;15.25;12.75;;;;;14.92;63.72;101464.56;4964722;28;45352;-40
2021/11/14 10:37:18;;;;;;;;;13.00;12.75;;;;;14.94;64.07;101462.75;4964727;28;46181;-39
2021/11/14 10:39:49;;;;;;;;;14.25;13.25;;;;;14.97;63.76;101467.09;4967386;28;45486;-40
2021/11/14 10:42:15;;;;;;;;;14.50;13.25;;;;;14.99;64.00;101459.13;4968695;28;45234;-40
2021/11/14 10:44:53;;;;;;;;;14.50;13.75;;;;;15.00;64.14;101461.72;4970326;28;45241;-40
2021/11/14 10:47:22;;;;;;;;;14.25;13.50;;;;;15.03;63.78;101466.09;4963285;28;45555;-46
2021/11/14 10:50:04;;;;;;;;;15.75;15.50;;;;;15.04;63.55;101462.53;4979882;28;45701;-47
2021/11/14 10:52:31;;;;;;;;;17.00;16.50;;;;;15.04;63.60;101468.72;4966464;28;45481;-44
2021/11/14 10:55:09;;;;;;;;;14.25;14.25;;;;;15.04;63.64;101467.84;4962734;28;45456;-45
2021/11/14 10:57:36;;;;;;;;;14.50;12.25;;;;;15.03;63.99;101461.69;4964328;28;46289;-48
2021/11/14 11:00:07;;;;;;;;;18.25;16.00;;;;;15.03;63.84;101466.97;4959740;28;45553;-44
2021/11/14 11:02:33;;;;;;;;;17.75;17.75;;;;;15.03;63.45;101460.78;4968702;28;45244;-43
2021/11/14 11:05:16;;;;;;;;;19.50;17.50;;;;;15.01;63.46;101463.47;4972357;28;45889;-47
2021/11/14 11:08:01;;;;;;;;;17.75;17.50;;;;;15.00;63.73;101468.81;4970845;28;46133;-45
2021/11/14 11:10:35;;;;;;;;;20.50;17.00;;;;;14.97;63.76;101468.88;4978844;28;45417;-44
2021/11/14 11:13:08;;;;;;;;;21.75;19.75;;;;;14.98;63.74;101470.63;4978760;28;45374;-48